Time;durP1;ratioP1;P1;durP2;ratioP2;P2;SDS_P1;SDS_P2;PMS_P1;PMS_P2;Temp;Humidity;BMP_temperature;BMP_pressure;BME280_temperature;BME280_humidity;BME280_pressure;Samples;Min_cycle;Max_cycle;Signal;HPM_P1;HPM_P2
2022/04/17 00:01:33;;;;;;;6.82;4.75;;;;;;;7.49;66.36;67608.66;5024011;28;20528;-89
2022/04/17 00:03:58;;;;;;;6.75;4.78;;;;;;;;;;5003038;28;20049;-86
2022/04/17 00:06:23;;;;;;;7.78;4.38;;;;;;;;;;5008950;28;20095;-87
2022/04/17 00:08:49;;;;;;;6.50;4.60;;;;;;;7.50;65.96;67607.72;5009757;28;20052;-87
2022/04/17 00:11:14;;;;;;;6.28;4.38;;;;;;;;;;5006112;28;20032;-86
2022/04/17 00:13:40;;;;;;;7.80;5.03;;;;;;;7.45;67.60;67602.63;5020370;28;20050;-86
2022/04/17 00:16:05;;;;;;;6.95;5.18;;;;;;;7.36;67.26;67597.72;5028579;28;20083;-89
2022/04/17 00:18:30;;;;;;;8.65;4.53;;;;;;;7.34;66.25;67590.19;5017356;28;20048;-87
2022/04/17 00:20:56;;;;;;;8.15;4.95;;;;;;;7.29;65.93;67584.50;5008070;28;20038;-87
2022/04/17 00:23:22;;;;;;;8.82;4.60;;;;;;;7.29;67.54;67583.94;5032198;28;20041;-88
2022/04/17 00:25:47;;;;;;;7.35;4.25;;;;;;;7.28;67.03;67583.38;5012910;28;20082;-89
2022/04/17 00:28:12;;;;;;;7.05;4.85;;;;;;;;;;5014457;28;20061;-89
2022/04/17 00:30:38;;;;;;;8.48;5.28;;;;;;;7.28;65.92;67585.44;5011161;28;20144;-87
2022/04/17 00:33:03;;;;;;;8.18;5.40;;;;;;;7.30;67.21;67585.63;5005074;28;20045;-87
2022/04/17 00:35:29;;;;;;;7.97;5.60;;;;;;;7.36;65.85;67594.50;5031269;28;20049;-87
2022/04/17 00:37:54;;;;;;;7.10;5.22;;;;;;;7.40;66.00;67599.59;5009246;28;20569;-86
2022/04/17 00:40:20;;;;;;;7.75;5.55;;;;;;;7.41;65.70;67597.53;5022804;28;20037;-88
2022/04/17 00:42:46;;;;;;;7.28;5.38;;;;;;;7.40;63.45;67596.97;5029286;28;20037;-88
2022/04/17 00:45:11;;;;;;;6.95;5.03;;;;;;;7.42;66.31;67599.22;5009312;28;20045;-86
2022/04/17 00:47:36;;;;;;;8.45;5.22;;;;;;;;;;5012023;28;20497;-86
2022/04/17 00:50:02;;;;;;;8.38;5.63;;;;;;;7.36;66.26;67594.50;5031204;28;20045;-86
2022/04/17 00:52:28;;;;;;;10.90;6.25;;;;;;;7.26;67.58;67583.75;5006144;28;20072;-86
2022/04/17 00:54:55;;;;;;;8.27;5.40;;;;;;;7.24;65.52;67578.84;5015095;28;20520;-87
2022/04/17 00:57:22;;;;;;;9.02;5.78;;;;;;;;;;5020186;28;20124;-86
2022/04/17 00:59:49;;;;;;;9.25;5.63;;;;;;;7.17;65.86;67570.94;5031295;28;20038;-86
2022/04/17 01:02:15;;;;;;;8.45;5.40;;;;;;;7.15;65.79;67568.66;5010838;28;20128;-87
2022/04/17 01:04:41;;;;;;;9.18;5.65;;;;;;;7.05;65.55;67557.94;5025484;28;20046;-87
2022/04/17 01:07:08;;;;;;;8.85;5.78;;;;;;;6.94;64.79;67545.47;5005880;28;20044;-88
2022/04/17 01:09:35;;;;;;;8.43;5.82;;;;;;;7.01;68.12;67553.94;5026056;28;20120;-89
2022/04/17 01:12:00;;;;;;;9.13;6.05;;;;;;;6.96;67.52;67548.31;5010280;28;20041;-86
2022/04/17 01:14:29;;;;;;;7.95;6.07;;;;;;;6.88;67.93;67538.69;5011084;28;20565;-87
2022/04/17 01:16:55;;;;;;;;;;;;;;;6.86;68.30;67542.28;5038667;28;20045;-87
2022/04/17 01:19:23;;;;;;;10.48;5.85;;;;;;;;;;5014927;28;19913;-86
2022/04/17 01:21:49;;;;;;;7.43;5.45;;;;;;;6.72;68.25;67523.78;5021387;28;20132;-86
2022/04/17 01:27:02;;;;;;;9.43;6.63;;;;;;;6.69;69.08;67517.75;5031198;28;20039;-86
2022/04/17 01:29:37;;;;;;;8.18;5.72;;;;;;;6.64;69.02;67512.09;5011884;28;20092;-86
2022/04/17 01:32:06;;;;;;;10.13;7.00;;;;;;;6.57;68.86;67504.19;5010883;28;20091;-85
2022/04/17 01:34:31;;;;;;;8.52;5.95;;;;;;;6.55;69.84;67505.69;5023644;28;20129;-86
2022/04/17 01:36:58;;;;;;;8.20;6.22;;;;;;;6.50;68.92;67496.81;5009160;28;20124;-85
2022/04/17 01:39:23;;;;;;;8.40;6.30;;;;;;;6.46;68.91;67492.88;5025052;28;20095;-86
2022/04/17 01:41:50;;;;;;;10.48;6.25;;;;;;;6.38;68.82;67486.47;5009286;28;20467;-85
2022/04/17 01:44:16;;;;;;;8.20;6.50;;;;;;;6.41;70.36;67489.84;5024379;28;20661;-85
2022/04/17 01:46:42;;;;;;;9.57;6.60;;;;;;;6.35;67.51;67485.72;5012336;28;20071;-86
2022/04/17 01:49:08;;;;;;;10.30;6.95;;;;;;;6.35;68.80;67482.50;5013930;28;20049;-86
2022/04/17 01:51:37;;;;;;;10.20;6.88;;;;;;;6.25;69.86;67469.13;5010062;28;20045;-87
2022/04/17 01:54:03;;;;;;;8.95;6.50;;;;;;;6.20;69.97;67469.31;5028794;28;20431;-87
2022/04/17 01:56:28;;;;;;;9.73;7.10;;;;;;;6.16;70.51;67461.59;5034203;28;20120;-87
2022/04/17 01:58:54;;;;;;;10.40;7.00;;;;;;;6.13;70.68;67456.13;5029581;28;20037;-86
2022/04/17 02:01:19;;;;;;;9.63;6.85;;;;;;;;;;5014610;28;20041;-86
2022/04/17 02:03:44;;;;;;;10.15;6.38;;;;;;;6.07;69.74;67449.91;5012197;28;20144;-87
2022/04/17 02:06:10;;;;;;;10.45;7.22;;;;;;;6.01;70.70;67447.84;5000022;28;20103;-86
2022/04/17 02:08:35;;;;;;;10.85;7.00;;;;;;;5.93;69.64;67428.81;5031716;28;20045;-87
2022/04/17 02:11:00;;;;;;;9.77;6.35;;;;;;;5.82;71.14;67421.63;5023801;28;20030;-87
2022/04/17 02:13:27;;;;;;;8.65;6.57;;;;;;;5.93;70.84;67439.38;5025460;28;20056;-88
2022/04/17 02:15:53;;;;;;;10.52;7.15;;;;;;;5.87;71.87;67433.13;5027945;28;20105;-87
2022/04/17 02:18:22;;;;;;;10.48;6.65;;;;;;;5.91;71.81;67431.81;5025822;28;20048;-86
2022/04/17 02:20:48;;;;;;;10.48;6.35;;;;;;;5.84;71.95;67423.88;5006463;28;20108;-85
2022/04/17 02:23:14;;;;;;;8.68;6.70;;;;;;;5.73;71.75;67411.47;5031147;28;20077;-86
2022/04/17 02:25:40;;;;;;;9.52;6.45;;;;;;;;;;5024313;28;20067;-85
2022/04/17 02:28:05;;;;;;;8.73;6.13;;;;;;;5.50;71.75;67386.03;5017905;28;20045;-86
2022/04/17 02:30:31;;;;;;;9.68;6.32;;;;;;;5.53;74.23;67392.06;5012876;28;20049;-86
2022/04/17 02:32:57;;;;;;;9.73;6.75;;;;;;;5.52;73.13;67388.84;5025693;28;20524;-86
2022/04/17 02:35:22;;;;;;;9.75;7.10;;;;;;;5.45;73.28;67380.94;5023294;28;20092;-88
2022/04/17 02:37:47;;;;;;;10.90;6.40;;;;;;;5.37;73.68;67372.47;5012890;28;20517;-87
2022/04/17 02:40:13;;;;;;;9.90;6.50;;;;;;;5.38;73.45;67373.03;5009303;28;20571;-86
2022/04/17 02:42:38;;;;;;;9.85;6.13;;;;;;;5.32;72.74;67369.47;5016306;28;20490;-87
2022/04/17 02:45:05;;;;;;;9.57;7.10;;;;;;;5.36;74.13;67376.63;5028608;28;20412;-86
2022/04/17 02:47:42;;;;;;;11.05;7.53;;;;;;;5.47;74.27;67385.28;5027933;28;20042;-87
2022/04/17 02:50:09;;;;;;;11.43;6.97;;;;;;;5.36;73.46;67373.97;5046712;28;20544;-88
2022/04/17 02:52:35;;;;;;;8.88;6.85;;;;;;;5.31;75.40;67365.69;5032305;28;20111;-87
2022/04/17 02:55:00;;;;;;;9.45;7.13;;;;;;;5.33;75.68;67367.41;5032537;28;20577;-87
2022/04/17 02:57:26;;;;;;;8.57;6.18;;;;;;;;;;5020773;28;20499;-87
2022/04/17 02:59:51;;;;;;;11.23;7.70;;;;;;;5.12;76.73;67344.81;5011822;28;20037;-87
2022/04/17 03:07:44;;;;;;;12.98;7.60;;;;;;;;;;5023752;28;20134;-84
2022/04/17 03:10:09;;;;;;;10.73;7.05;;;;;;;4.86;77.44;67318.06;5039422;28;20069;-86
2022/04/17 03:12:38;;;;;;;11.23;7.25;;;;;;;;;;5023730;28;20099;-87
2022/04/17 03:15:05;;;;;;;10.73;7.68;;;;;;;4.79;76.45;67310.16;5014842;28;20120;-87
2022/04/17 03:17:31;;;;;;;9.52;7.50;;;;;;;4.79;78.86;67310.16;5028666;28;20136;-85
2022/04/17 03:19:57;;;;;;;11.70;7.05;;;;;;;4.67;79.04;67300.38;5014474;28;20445;-85
2022/04/17 03:22:25;;;;;;;11.20;7.72;;;;;;;4.55;78.10;67281.56;5003892;28;20033;-88
2022/04/17 03:24:51;;;;;;;10.90;7.50;;;;;;;;;;5024898;28;20108;-85
2022/04/17 03:27:17;;;;;;;10.32;7.00;;;;;;;4.46;80.13;67276.66;5010050;28;20474;-86
2022/04/17 03:29:42;;;;;;;10.63;6.63;;;;;;;4.36;79.67;67265.94;5030079;28;20451;-85
2022/04/17 03:32:07;;;;;;;8.93;6.85;;;;;;;4.42;79.18;67272.16;5012096;28;20063;-87
2022/04/17 03:34:33;;;;;;;11.15;7.70;;;;;;;4.41;81.97;67266.31;5044088;28;20045;-89
2022/04/17 03:36:58;;;;;;;9.52;7.25;;;;;;;4.34;81.33;67263.69;5019970;28;20040;-87
2022/04/17 03:39:24;;;;;;;10.80;7.03;;;;;;;4.25;81.57;67251.44;5010443;28;20493;-87
2022/04/17 03:41:51;;;;;;;9.70;7.20;;;;;;;4.35;80.85;67264.81;5008999;28;20123;-87
2022/04/17 03:44:17;;;;;;;9.68;7.30;;;;;;;4.20;81.09;67245.81;5027011;28;20512;-87
2022/04/17 03:46:43;;;;;;;10.02;7.70;;;;;;;4.22;83.01;67248.06;5031862;28;20391;-86
2022/04/17 03:49:09;;;;;;;14.00;7.93;;;;;;;4.03;82.65;67226.63;5027296;28;20744;-87
2022/04/17 03:51:34;;;;;;;10.07;7.93;;;;;;;4.04;84.27;67228.31;5027833;28;20578;-86
2022/04/17 03:53:59;;;;;;;11.73;8.07;;;;;;;3.94;84.63;67213.81;5025607;28;20042;-85
2022/04/17 03:56:25;;;;;;;11.43;8.30;;;;;;;3.88;85.54;67207.06;5024625;28;20037;-85
2022/04/17 03:58:50;;;;;;;9.65;7.38;;;;;;;3.65;83.85;67187.50;5025558;28;20099;-89
2022/04/17 04:01:16;;;;;;;14.20;8.43;;;;;;;3.72;84.93;67190.16;5025089;28;20061;-86
2022/04/17 04:03:41;;;;;;;10.73;8.00;;;;;;;3.70;85.38;67193.16;5021507;28;20497;-86
2022/04/17 04:06:06;;;;;;;11.98;7.88;;;;;;;3.50;84.77;67165.31;5024339;28;20045;-86
2022/04/17 04:08:32;;;;;;;11.40;8.05;;;;;;;3.64;86.33;67183.19;5010986;28;20042;-85
2022/04/17 04:10:57;;;;;;;11.40;8.35;;;;;;;3.56;86.34;67175.28;5004451;28;20104;-85
2022/04/17 04:13:22;;;;;;;11.85;7.57;;;;;;;3.45;87.09;67162.31;5025220;28;20624;-86
2022/04/17 04:15:48;;;;;;;13.40;8.73;;;;;;;3.53;87.09;67168.69;5004282;28;20616;-85
2022/04/17 04:18:13;;;;;;;11.55;9.02;;;;;;;3.49;87.98;67158.94;5004911;28;20038;-85
2022/04/17 04:20:38;;;;;;;11.43;8.40;;;;;;;3.47;87.54;67167.19;5023495;28;20099;-85
2022/04/17 04:23:04;;;;;;;12.32;8.75;;;;;;;3.46;88.01;67166.09;5027003;28;20044;-87
2022/04/17 04:25:29;;;;;;;11.60;7.88;;;;;;;;;;5004919;28;20124;-85
2022/04/17 04:30:38;;;;;;;12.98;9.13;;;;;;;3.26;88.79;67139.38;5024977;28;20060;-85
2022/04/17 04:33:03;;;;;;;14.73;9.35;;;;;;;3.20;88.92;67137.31;5027119;28;20044;-85
2022/04/17 04:35:29;;;;;;;14.40;9.85;;;;;;;3.18;89.46;67125.09;5027264;28;20128;-86
2022/04/17 04:37:56;;;;;;;13.38;9.60;;;;;;;3.14;89.59;67128.50;5027528;28;20064;-85
2022/04/17 04:40:21;;;;;;;15.25;8.98;;;;;;;3.06;89.78;67122.09;5006692;28;20783;-86
2022/04/17 04:42:48;;;;;;;14.80;8.88;;;;;;;3.07;89.36;67123.22;5010450;28;20038;-85
2022/04/17 04:47:58;;;;;;;12.63;8.38;;;;;;;2.99;89.92;67114.75;5030584;28;20556;-88
2022/04/17 04:50:23;;;;;;;13.00;8.70;;;;;;;3.08;90.40;67122.28;5019676;28;20111;-87
2022/04/17 04:52:48;;;;;;;12.00;9.07;;;;;;;3.03;90.41;67116.66;5016298;28;20198;-85
2022/04/17 04:55:14;;;;;;;11.63;8.52;;;;;;;3.01;91.43;67117.00;5005710;28;20037;-87
2022/04/17 04:57:39;;;;;;;12.73;9.07;;;;;;;2.91;90.73;67108.94;5027542;28;20725;-86
2022/04/17 05:00:06;;;;;;;12.32;8.32;;;;;;;3.04;91.02;67114.56;5026019;28;20044;-85
2022/04/17 05:02:31;;;;;;;15.95;8.82;;;;;;;3.06;90.40;67122.66;5026428;28;20096;-85
2022/04/17 05:04:57;;;;;;;12.98;9.40;;;;;;;3.18;90.79;67135.63;5025093;28;20053;-85
2022/04/17 05:07:22;;;;;;;12.25;8.43;;;;;;;3.11;90.36;67130.94;5028209;28;20374;-86
2022/04/17 05:09:47;;;;;;;13.48;9.35;;;;;;;3.09;90.72;67126.03;5029877;28;20029;-84
2022/04/17 05:12:13;;;;;;;11.30;8.90;;;;;;;3.05;90.88;67120.94;5024089;28;20052;-85
2022/04/17 05:14:41;;;;;;;12.43;8.40;;;;;;;3.15;91.05;67129.59;5026703;28;20065;-85
2022/04/17 05:17:07;;;;;;;11.98;8.70;;;;;;;3.17;90.31;67132.44;5025839;28;20037;-86
2022/04/17 05:19:32;;;;;;;12.15;8.10;;;;;;;3.24;90.68;67137.13;5031193;28;20098;-86
2022/04/17 05:21:58;;;;;;;11.88;8.52;;;;;;;3.28;89.67;67146.91;5030372;28;20045;-85
2022/04/17 05:24:25;;;;;;;11.43;9.02;;;;;;;3.41;89.06;67155.72;5022816;28;20057;-85
2022/04/17 05:26:51;;;;;;;11.48;7.80;;;;;;;3.54;88.81;67172.47;5028506;28;20132;-84
2022/04/17 05:29:17;;;;;;;11.27;7.75;;;;;;;3.68;88.12;67185.06;5025034;28;20036;-84
2022/04/17 05:31:42;;;;;;;10.93;7.13;;;;;;;3.72;86.18;67194.84;5027847;28;20041;-85
2022/04/17 05:34:08;;;;;;;9.63;7.93;;;;;;;3.81;86.56;67199.72;5025915;28;20508;-85
2022/04/17 05:36:33;;;;;;;10.52;8.00;;;;;;;3.92;87.41;67217.41;5025687;28;20509;-85
2022/04/17 05:38:58;;;;;;;10.70;7.60;;;;;;;3.95;84.74;67214.97;5023271;28;20118;-84
2022/04/17 05:41:24;;;;;;;11.02;6.85;;;;;;;;;;5032967;28;20601;-86
2022/04/17 05:43:51;;;;;;;14.40;8.00;;;;;;;4.17;85.12;67245.06;5032927;28;20045;-87
2022/04/17 05:46:16;;;;;;;10.45;7.35;;;;;;;4.30;84.01;67256.53;5041797;28;20072;-89
2022/04/17 05:48:42;;;;;;;9.60;7.40;;;;;;;4.41;82.42;67265.75;5030856;28;20500;-84
2022/04/17 05:51:08;;;;;;;11.82;8.20;;;;;;;4.61;82.56;67293.03;5010844;28;20040;-86
2022/04/17 05:53:33;;;;;;;9.52;7.85;;;;;;;4.80;81.18;67308.66;5012457;28;20612;-85
2022/04/17 05:55:59;;;;;;;9.88;7.50;;;;;;;4.84;81.60;67318.44;5024598;28;20445;-86
2022/04/17 05:58:25;;;;;;;9.75;7.35;;;;;;;4.98;80.14;67329.00;5003413;28;20095;-86
2022/04/17 06:00:50;;;;;;;11.95;7.90;;;;;;;5.18;80.03;67356.84;5027826;28;20452;-87
2022/04/17 06:03:16;;;;;;;11.43;6.72;;;;;;;5.21;77.47;67357.03;5024992;28;20536;-86
2022/04/17 06:05:41;;;;;;;10.57;7.95;;;;;;;;;;5009071;28;20802;-86
2022/04/17 06:08:07;;;;;;;11.27;6.80;;;;;;;5.50;76.45;67386.59;5003064;28;20042;-86
2022/04/17 06:10:33;;;;;;;9.40;7.28;;;;;;;5.65;76.82;67408.25;5023833;28;20045;-87
2022/04/17 06:12:58;;;;;;;10.90;6.97;;;;;;;5.79;75.20;67418.25;5008599;28;20053;-84
2022/04/17 06:15:23;;;;;;;9.95;6.57;;;;;;;5.91;73.84;67437.09;5024338;28;20042;-85
2022/04/17 06:17:49;;;;;;;11.30;6.97;;;;;;;6.04;73.89;67449.16;5006955;28;20033;-87
2022/04/17 06:20:15;;;;;;;9.32;6.22;;;;;;;;;;5005348;28;20057;-84
2022/04/17 06:22:41;;;;;;;9.05;6.80;;;;;;;6.30;72.78;67480.06;5023851;28;20711;-84
2022/04/17 06:25:09;;;;;;;10.38;6.90;;;;;;;6.45;71.46;67494.38;5023833;28;20041;-85
2022/04/17 06:27:39;;;;;;;9.70;6.47;;;;;;;6.59;71.80;67506.44;5023803;28;20709;-86
2022/04/17 06:30:08;;;;;;;9.30;6.28;;;;;;;;;;5002366;28;20485;-87
2022/04/17 06:32:34;;;;;;;9.20;6.78;;;;;;;6.76;70.53;67525.66;5005935;28;20041;-88
2022/04/17 06:35:00;;;;;;;11.63;7.25;;;;;;;6.87;69.63;67537.53;5004942;28;20046;-84
2022/04/17 06:37:25;;;;;;;9.23;6.25;;;;;;;;;;5008842;28;20072;-85
2022/04/17 06:39:50;;;;;;;7.45;5.60;;;;;;;;;;5008919;28;20049;-87
2022/04/17 06:42:15;;;;;;;8.70;6.00;;;;;;;;;;5012598;28;20130;-84
2022/04/17 06:44:40;;;;;;;9.03;6.00;;;;;;;7.23;67.78;67578.28;5028108;28;20049;-83
2022/04/17 06:47:06;;;;;;;8.20;6.10;;;;;;;7.40;67.68;67591.66;5007998;28;20629;-85
2022/04/17 06:49:31;;;;;;;9.65;6.50;;;;;;;7.57;67.38;67615.06;5028532;28;20056;-83
2022/04/17 06:51:57;;;;;;;8.45;5.40;;;;;;;7.61;66.08;67614.31;5035530;28;20044;-83
2022/04/17 06:54:22;;;;;;;8.35;5.97;;;;;;;7.66;65.85;67625.81;5031351;28;20037;-85
2022/04/17 06:56:47;;;;;;;7.93;5.72;;;;;;;;;;5032000;28;20049;-83
2022/04/17 06:59:12;;;;;;;8.97;6.20;;;;;;;7.87;64.41;67648.47;5015933;28;20513;-83
2022/04/17 07:01:38;;;;;;;12.23;6.18;;;;;;;7.87;64.96;67643.72;5010002;28;20286;-83
2022/04/17 07:04:03;;;;;;;8.32;5.18;;;;;;;;;;5029532;28;20228;-83
2022/04/17 07:06:28;;;;;;;7.28;4.93;;;;;;;8.09;63.06;67672.81;5026386;28;20476;-85
2022/04/17 07:08:54;;;;;;;7.65;5.50;;;;;;;;;;5024755;28;21903;-82
2022/04/17 07:11:22;;;;;;;8.25;5.40;;;;;;;8.22;64.92;67686.97;5026133;28;20116;-83
2022/04/17 07:13:48;;;;;;;10.98;5.15;;;;;;;8.27;64.13;67693.19;5024730;28;20099;-82
2022/04/17 07:16:13;;;;;;;9.35;5.70;;;;;;;8.31;62.73;67700.38;5025236;28;20053;-83
2022/04/17 07:18:38;;;;;;;7.05;4.90;;;;;;;8.42;62.22;67709.06;5023683;28;20057;-83
2022/04/17 07:21:04;;;;;;;7.00;5.22;;;;;;;8.54;62.96;67727.97;5020989;28;20120;-82
2022/04/17 07:23:29;;;;;;;7.10;4.70;;;;;;;8.66;62.00;67738.34;5025197;28;20128;-83
2022/04/17 07:25:56;;;;;;;6.78;4.60;;;;;;;;;;5011251;28;20064;-83
2022/04/17 07:28:22;;;;;;;7.45;5.05;;;;;;;8.82;60.91;67753.81;5027694;28;20037;-83
2022/04/17 07:30:47;;;;;;;9.65;4.53;;;;;;;8.98;60.10;67771.97;5025990;28;20531;-85
2022/04/17 07:33:13;;;;;;;6.85;4.40;;;;;;;8.99;59.11;67773.09;5026591;28;20037;-83
2022/04/17 07:35:38;;;;;;;5.60;3.97;;;;;;;;;;5026045;28;20065;-84
2022/04/17 07:38:04;;;;;;;6.93;4.07;;;;;;;9.18;57.61;67788.75;5028582;28;20072;-84
2022/04/17 07:40:31;;;;;;;6.20;4.10;;;;;;;9.24;55.96;67800.88;5030824;28;20046;-85
2022/04/17 07:42:59;;;;;;;5.80;3.80;;;;;;;9.34;58.86;67811.06;5032004;28;20116;-83
2022/04/17 07:45:25;;;;;;;6.53;3.90;;;;;;;9.40;58.96;67821.09;5007497;28;20041;-84
2022/04/17 07:47:51;;;;;;;5.93;4.22;;;;;;;9.43;55.19;67821.81;5024887;28;20049;-85
2022/04/17 07:50:21;;;;;;;5.57;3.15;;;;;;;9.50;55.80;67829.22;5026187;28;20046;-84
2022/04/17 07:52:46;;;;;;;7.45;3.78;;;;;;;9.56;55.24;67836.00;5026373;28;20490;-84
2022/04/17 07:55:13;;;;;;;7.13;3.85;;;;;;;;;;5009115;28;20041;-84
2022/04/17 08:00:24;;;;;;;6.25;4.15;;;;;;;9.70;54.71;67851.31;5024835;28;20088;-84
2022/04/17 08:03:06;;;;;;;5.80;3.60;;;;;;;9.71;55.19;67853.00;5030015;28;20049;-87
2022/04/17 08:05:31;;;;;;;5.13;3.80;;;;;;;;;;5023851;28;20041;-84
2022/04/17 08:07:56;;;;;;;5.72;3.22;;;;;;;;;;5006473;28;20038;-83
2022/04/17 08:10:22;;;;;;;5.13;3.47;;;;;;;;;;5023395;28;20072;-84
2022/04/17 08:12:50;;;;;;;5.50;3.67;;;;;;;10.20;54.65;67906.31;5026968;28;20541;-83
2022/04/17 08:15:15;;;;;;;8.07;3.38;;;;;;;10.24;54.28;67911.44;5002033;28;20041;-84
2022/04/17 08:17:40;;;;;;;4.72;3.47;;;;;;;;;;5026614;28;20046;-85
2022/04/17 08:20:06;;;;;;;7.97;3.80;;;;;;;;;;5027308;28;20040;-85
2022/04/17 08:22:31;;;;;;;5.28;3.80;;;;;;;10.15;51.32;67901.78;5026999;28;20291;-84
2022/04/17 08:24:57;;;;;;;5.05;4.10;;;;;;;10.25;55.77;67912.56;5008365;28;20033;-84
2022/04/17 08:27:22;;;;;;;5.78;3.70;;;;;;;10.32;52.82;67920.53;5026406;28;20088;-84
2022/04/17 08:29:47;;;;;;;7.15;4.25;;;;;;;10.42;53.92;67930.75;5026325;28;20091;-85
2022/04/17 08:32:12;;;;;;;6.47;4.00;;;;;;;;;;5025554;28;20037;-84
2022/04/17 08:34:38;;;;;;;8.43;3.60;;;;;;;10.32;51.66;67919.97;5005911;28;20073;-84
2022/04/17 08:37:03;;;;;;;7.15;3.75;;;;;;;;;;5010350;28;20116;-84
2022/04/17 08:39:28;;;;;;;6.32;4.07;;;;;;;10.64;52.45;67949.81;5028811;28;20246;-84
2022/04/17 08:41:56;;;;;;;5.97;4.05;;;;;;;;;;5027231;28;20056;-85
2022/04/17 08:44:22;;;;;;;6.55;4.07;;;;;;;10.72;51.30;67966.88;5025126;28;20381;-84
2022/04/17 08:46:47;;;;;;;5.60;3.90;;;;;;;10.86;53.65;67974.78;5027602;28;20135;-84
2022/04/17 08:49:13;;;;;;;5.30;4.13;;;;;;;11.00;52.20;67990.13;5025592;28;20042;-84
2022/04/17 08:51:39;;;;;;;5.32;4.30;;;;;;;;;;5010451;28;20068;-85
2022/04/17 08:54:09;;;;;;;5.60;4.05;;;;;;;10.95;51.80;67990.31;5005870;28;20061;-84
2022/04/17 08:56:34;;;;;;;6.05;3.65;;;;;;;;;;5022864;28;20136;-85
2022/04/17 08:59:00;;;;;;;5.40;3.67;;;;;;;11.23;53.31;68021.53;5012295;28;20168;-84
2022/04/17 09:01:26;;;;;;;6.15;4.03;;;;;;;11.52;53.79;68056.56;5022779;28;20041;-84
2022/04/17 09:03:52;;;;;;;8.07;4.38;;;;;;;11.70;53.18;68073.22;5031349;28;20041;-84
2022/04/17 09:06:21;;;;;;;6.53;4.15;;;;;;;11.72;52.10;68070.16;5028112;28;20038;-85
2022/04/17 09:09:03;;;;;;;6.43;4.10;;;;;;;;;;5029431;28;20068;-84
2022/04/17 09:11:30;;;;;;;6.28;4.03;;;;;;;11.95;50.48;68096.31;5026809;28;20052;-86
2022/04/17 09:14:04;;;;;;;6.25;4.07;;;;;;;12.04;51.09;68110.72;5030367;28;20073;-88
2022/04/17 09:16:38;;;;;;;6.32;3.80;;;;;;;12.06;51.08;68107.69;5012370;28;20051;-85
2022/04/17 09:19:14;;;;;;;5.85;3.80;;;;;;;12.23;49.80;68127.00;5031062;28;20034;-85
2022/04/17 09:21:40;;;;;;;6.63;4.70;;;;;;;;;;5012218;28;20116;-86
2022/04/17 09:24:14;;;;;;;8.47;4.60;;;;;;;;;;5032278;28;20536;-85
2022/04/17 09:26:50;;;;;;;6.10;4.10;;;;;;;;;;5031617;28;20355;-85
2022/04/17 09:29:24;;;;;;;7.25;4.35;;;;;;;12.48;49.68;68159.59;5032402;28;20096;-85
2022/04/17 09:31:59;;;;;;;6.65;4.13;;;;;;;12.57;50.06;68165.06;5030984;28;20061;-85
2022/04/17 09:34:26;;;;;;;7.32;4.10;;;;;;;12.68;48.96;68176.97;5007187;28;20042;-84
2022/04/17 09:36:58;;;;;;;5.32;3.70;;;;;;;12.76;47.90;68186.06;5025876;28;20087;-85
2022/04/17 09:39:31;;;;;;;5.10;3.70;;;;;;;12.74;46.19;68188.56;4997283;28;20030;-84
2022/04/17 09:41:57;;;;;;;6.20;4.00;;;;;;;;;;5023877;28;20041;-84
2022/04/17 09:44:46;;;;;;;6.22;4.00;;;;;;;;;;5007817;28;20611;-86
2022/04/17 09:47:16;;;;;;;6.57;4.00;;;;;;;12.77;45.95;68191.97;5008455;28;20041;-85
2022/04/17 09:49:58;;;;;;;6.05;4.25;;;;;;;;;;5026231;28;20551;-85
2022/04/17 09:52:31;;;;;;;6.15;3.95;;;;;;;12.87;46.85;68198.59;5024305;28;20124;-86
2022/04/17 09:55:01;;;;;;;5.57;3.60;;;;;;;13.03;46.35;68215.63;5026446;28;20440;-84
2022/04/17 09:57:33;;;;;;;7.93;3.42;;;;;;;13.28;46.33;68249.44;5024504;28;20136;-86
2022/04/17 10:00:16;;;;;;;6.10;4.00;;;;;;;13.08;44.57;68221.31;5028097;28;20045;-84
2022/04/17 10:02:43;;;;;;;6.18;3.60;;;;;;;12.99;44.47;68216.44;5011003;28;20041;-85
2022/04/17 10:05:14;;;;;;;4.90;3.60;;;;;;;13.15;48.15;68228.72;5026868;28;20045;-85
2022/04/17 10:07:42;;;;;;;6.57;3.75;;;;;;;13.53;44.11;68271.97;5029092;28;20072;-85
2022/04/17 10:10:09;;;;;;;4.32;3.10;;;;;;;13.61;46.03;68285.84;5034101;28;20532;-85
2022/04/17 10:12:34;;;;;;;6.65;3.50;;;;;;;13.76;46.56;68292.19;5033929;28;20050;-85
2022/04/17 10:15:06;;;;;;;5.70;3.30;;;;;;;13.74;45.84;68295.28;5009359;28;20045;-85
2022/04/17 10:17:33;;;;;;;5.05;3.58;;;;;;;13.71;46.65;68296.66;5016716;28;20120;-84
2022/04/17 10:20:06;;;;;;;6.90;3.58;;;;;;;;;;5027133;28;20444;-85
2022/04/17 10:22:32;;;;;;;4.43;3.00;;;;;;;;;;5026924;28;20164;-85
2022/04/17 10:24:58;;;;;;;3.55;2.33;;;;;;;14.26;40.53;68352.72;5031509;28;20485;-86
2022/04/17 10:27:28;;;;;;;4.20;2.63;;;;;;;14.26;41.33;68358.09;5031779;28;20056;-84
2022/04/17 10:30:01;;;;;;;4.68;2.60;;;;;;;14.58;43.28;68388.59;5031156;28;20045;-84
2022/04/17 10:32:29;;;;;;;5.40;3.22;;;;;;;;;;5029089;28;20050;-85
2022/04/17 10:35:10;;;;;;;4.53;2.80;;;;;;;14.37;42.20;68362.56;5027911;28;20540;-86
2022/04/17 10:38:04;;;;;;;5.60;2.92;;;;;;;14.42;42.17;68370.38;5026156;28;20413;-86
2022/04/17 10:40:31;;;;;;;6.80;3.58;;;;;;;14.47;42.25;68376.06;5007010;28;20041;-84
2022/04/17 10:43:00;;;;;;;4.82;3.25;;;;;;;;;;5010376;28;20046;-85
2022/04/17 10:45:30;;;;;;;4.50;3.40;;;;;;;14.77;41.41;68409.69;5022753;28;20076;-85
2022/04/17 10:48:05;;;;;;;5.63;2.90;;;;;;;;;;5009924;28;20037;-85
2022/04/17 10:50:31;;;;;;;4.53;3.00;;;;;;;14.91;41.14;68429.84;5010173;28;20505;-82
2022/04/17 10:52:56;;;;;;;5.32;2.78;;;;;;;;;;5029698;28;20133;-82
2022/04/17 10:55:22;;;;;;;3.97;2.53;;;;;;;;;;5025452;28;20065;-82
2022/04/17 10:57:49;;;;;;;3.80;2.72;;;;;;;14.77;36.13;68407.00;5028627;28;20312;-82
2022/04/17 11:00:28;;;;;;;4.10;2.75;;;;;;;14.89;38.47;68417.41;5010912;28;20038;-84
2022/04/17 11:02:58;;;;;;;5.00;2.85;;;;;;;14.96;38.33;68430.16;5026933;28;21038;-82
2022/04/17 11:06:08;;;;;;;6.20;2.60;;;;;;;;;;5021610;28;20596;-82
2022/04/17 11:08:21;;;;;;;4.40;2.33;;;;;;;15.10;36.62;68446.69;5023160;28;20452;-84
2022/04/17 11:10:49;;;;;;;4.32;2.88;;;;;;;;;;5027589;28;20068;-83
2022/04/17 11:13:17;;;;;;;5.93;3.17;;;;;;;15.10;38.01;68446.69;5027588;28;20037;-84
2022/04/17 11:15:43;;;;;;;6.25;3.40;;;;;;;15.07;37.70;68442.69;5026124;28;20493;-85
2022/04/17 11:18:09;;;;;;;4.32;2.60;;;;;;;15.37;38.68;68475.75;5026599;28;20133;-83
2022/04/17 11:20:36;;;;;;;4.18;2.15;;;;;;;15.70;40.14;68510.66;5026889;28;20072;-84
2022/04/17 11:23:01;;;;;;;5.03;2.70;;;;;;;15.70;34.97;68513.34;5028066;28;20044;-83
2022/04/17 11:25:28;;;;;;;5.38;2.90;;;;;;;;;;5023673;28;20049;-84
2022/04/17 11:27:53;;;;;;;4.07;2.47;;;;;;;15.66;36.61;68508.22;5026779;28;20051;-84
2022/04/17 11:30:18;;;;;;;4.13;2.55;;;;;;;15.69;36.58;68512.22;5009717;28;20041;-82
2022/04/17 11:32:47;;;;;;;4.85;2.60;;;;;;;15.57;35.10;68496.41;5026795;28;20656;-83
2022/04/17 11:35:18;;;;;;;5.43;2.70;;;;;;;15.47;35.23;68487.69;5005361;28;20052;-83
2022/04/17 11:37:53;;;;;;;5.53;2.70;;;;;;;15.58;35.84;68499.66;5025374;28;20045;-84
2022/04/17 11:40:19;;;;;;;4.68;2.70;;;;;;;15.64;36.48;68511.84;5031588;28;20034;-83
2022/04/17 11:42:50;;;;;;;5.18;2.53;;;;;;;15.81;35.24;68525.31;5028028;28;20516;-84
2022/04/17 11:45:21;;;;;;;5.40;2.60;;;;;;;15.82;34.49;68525.88;5028391;28;20045;-83
2022/04/17 11:47:48;;;;;;;4.22;2.70;;;;;;;16.06;38.75;68550.00;5031386;28;20048;-82
2022/04/17 11:50:26;;;;;;;4.50;2.80;;;;;;;16.42;37.31;68587.75;5028194;28;20048;-84
2022/04/17 11:52:53;;;;;;;5.25;2.65;;;;;;;16.45;35.15;68594.44;5012042;28;20560;-83
2022/04/17 11:55:27;;;;;;;4.32;2.80;;;;;;;16.19;33.61;68568.03;5009759;28;20077;-83
2022/04/17 11:57:52;;;;;;;5.20;3.00;;;;;;;16.33;36.18;68583.44;5027708;28;20057;-84
2022/04/17 12:00:18;;;;;;;4.75;2.90;;;;;;;16.62;36.15;68615.34;5028086;28;20038;-85
2022/04/17 12:02:43;;;;;;;3.65;2.58;;;;;;;16.70;36.07;68622.38;5028438;28;20499;-83
2022/04/17 12:05:13;;;;;;;5.07;2.60;;;;;;;16.88;34.76;68645.03;5027909;28;20039;-83
2022/04/17 12:07:39;;;;;;;4.30;2.55;;;;;;;;;;5026009;28;20111;-83
2022/04/17 12:10:07;;;;;;;4.45;2.78;;;;;;;16.87;33.51;68638.50;5029197;28;20042;-83
2022/04/17 12:12:34;;;;;;;4.53;2.78;;;;;;;17.10;35.53;68669.56;5010036;28;20173;-86
2022/04/17 12:15:03;;;;;;;5.10;2.83;;;;;;;17.34;37.06;68696.34;5027585;28;20052;-84
2022/04/17 12:17:30;;;;;;;4.25;2.80;;;;;;;17.47;36.77;68707.38;5022905;28;20502;-84
2022/04/17 12:19:55;;;;;;;4.20;2.67;;;;;;;17.65;35.06;68727.34;5016621;28;20309;-83
2022/04/17 12:22:21;;;;;;;5.15;3.15;;;;;;;17.60;34.43;68719.50;5032930;28;20087;-88